createdAt,value
2023-01-20T00:01:53.339Z,-0.04
2023-01-20T00:04:20.948Z,-0.04
2023-01-20T00:06:49.020Z,-0.04
2023-01-20T00:09:18.472Z,-0.10
2023-01-20T00:11:46.456Z,-0.10
2023-01-20T00:14:15.110Z,-0.09
2023-01-20T00:16:43.002Z,-0.08
2023-01-20T00:19:14.066Z,-0.07
2023-01-20T00:21:42.647Z,-0.10
2023-01-20T00:24:10.528Z,-0.12
2023-01-20T00:26:38.134Z,-0.13
2023-01-20T00:29:06.419Z,-0.12
2023-01-20T00:31:34.631Z,-0.08
2023-01-20T00:34:03.269Z,-0.03
2023-01-20T00:36:33.286Z,-0.06
2023-01-20T00:39:02.654Z,-0.07
2023-01-20T00:41:31.209Z,-0.03
2023-01-20T00:43:59.567Z,-0.02
2023-01-20T00:46:27.725Z,0.01
2023-01-20T00:48:55.407Z,0.00
2023-01-20T00:51:23.101Z,-0.03
2023-01-20T00:53:53.110Z,-0.02
2023-01-20T00:56:20.691Z,-0.03
2023-01-20T00:58:48.865Z,-0.02
2023-01-20T01:01:16.561Z,-0.08
2023-01-20T01:03:45.535Z,-0.09
2023-01-20T01:06:14.937Z,-0.16
2023-01-20T01:08:43.293Z,-0.14
2023-01-20T01:11:13.118Z,-0.14
2023-01-20T01:13:42.546Z,-0.10
2023-01-20T01:16:14.457Z,0.03
2023-01-20T01:18:43.196Z,0.04
2023-01-20T01:21:13.029Z,0.06
2023-01-20T01:23:41.669Z,0.03
2023-01-20T01:26:10.041Z,-0.04
2023-01-20T01:28:39.759Z,-0.04
2023-01-20T01:31:09.418Z,-0.07
2023-01-20T01:33:38.583Z,-0.13
2023-01-20T01:36:08.431Z,-0.13
2023-01-20T01:38:36.655Z,-0.11
2023-01-20T01:41:04.474Z,-0.09
2023-01-20T01:43:34.722Z,-0.22
2023-01-20T01:46:04.196Z,-0.34
2023-01-20T01:48:38.404Z,-0.33
2023-01-20T01:51:09.899Z,-0.40
2023-01-20T01:53:43.505Z,-0.36
2023-01-20T01:56:12.375Z,-0.33
2023-01-20T01:58:43.415Z,-0.36
2023-01-20T02:01:13.208Z,-0.41
2023-01-20T02:03:49.042Z,-0.42
2023-01-20T02:06:17.332Z,-0.43
2023-01-20T02:08:45.736Z,-0.41
2023-01-20T02:11:13.445Z,-0.41
2023-01-20T02:13:41.452Z,-0.36
2023-01-20T02:16:19.156Z,-0.34
2023-01-20T02:18:59.482Z,-0.31
2023-01-20T02:21:55.503Z,-0.28
2023-01-20T02:25:06.369Z,-0.30
2023-01-20T02:28:01.243Z,-0.25
2023-01-20T02:30:53.924Z,-0.24
2023-01-20T02:33:30.400Z,-0.31
2023-01-20T02:36:03.557Z,-0.37
2023-01-20T02:38:40.651Z,-0.42
2023-01-20T02:41:13.771Z,-0.46
2023-01-20T02:43:48.046Z,-0.45
2023-01-20T02:46:19.716Z,-0.56
2023-01-20T02:48:54.336Z,-0.65
2023-01-20T02:51:27.897Z,-0.76
2023-01-20T02:54:02.264Z,-0.82
2023-01-20T02:56:31.512Z,-0.75
2023-01-20T02:59:04.454Z,-0.71
2023-01-20T03:01:35.508Z,-0.74
2023-01-20T03:04:10.334Z,-0.73
2023-01-20T03:06:43.401Z,-0.75
2023-01-20T03:09:15.492Z,-0.70
2023-01-20T03:11:54.355Z,-0.70
2023-01-20T03:14:22.705Z,-0.67
2023-01-20T03:16:50.508Z,-0.66
2023-01-20T03:19:20.698Z,-0.69
2023-01-20T03:21:49.281Z,-0.67
2023-01-20T03:24:17.856Z,-0.69
2023-01-20T03:26:45.579Z,-0.76
2023-01-20T03:29:15.530Z,-0.80
2023-01-20T03:31:47.625Z,-0.73
2023-01-20T03:34:19.373Z,-0.70
2023-01-20T03:36:49.157Z,-0.70
2023-01-20T03:39:18.345Z,-0.75
2023-01-20T03:41:58.997Z,-0.76
2023-01-20T03:44:34.501Z,-0.75
2023-01-20T03:47:11.174Z,-0.73
2023-01-20T03:49:47.272Z,-0.70
2023-01-20T03:52:23.583Z,-0.61
2023-01-20T03:55:15.624Z,-0.57
2023-01-20T03:57:48.878Z,-0.50
2023-01-20T04:00:19.179Z,-0.45
2023-01-20T04:02:46.926Z,-0.40
2023-01-20T04:05:15.946Z,-0.34
2023-01-20T04:07:47.813Z,-0.28
2023-01-20T04:10:18.628Z,-0.29
2023-01-20T04:12:46.460Z,-0.35
2023-01-20T04:15:14.984Z,-0.35
2023-01-20T04:17:43.030Z,-0.34
2023-01-20T04:20:14.750Z,-0.33
2023-01-20T04:22:50.006Z,-0.37
2023-01-20T04:25:25.426Z,-0.28
2023-01-20T04:27:53.348Z,-0.25
2023-01-20T04:30:21.543Z,-0.29
2023-01-20T04:32:49.219Z,-0.33
2023-01-20T04:35:20.247Z,-0.35
2023-01-20T04:37:49.659Z,-0.34
2023-01-20T04:40:18.016Z,-0.33
2023-01-20T04:42:45.587Z,-0.36
2023-01-20T04:45:16.495Z,-0.31
2023-01-20T04:47:44.599Z,-0.30
2023-01-20T04:50:15.419Z,-0.28
2023-01-20T04:52:43.514Z,-0.27
2023-01-20T04:55:13.764Z,-0.21
2023-01-20T04:57:41.510Z,-0.25
2023-01-20T05:00:10.397Z,-0.24
2023-01-20T05:02:38.023Z,-0.23
2023-01-20T05:05:06.189Z,-0.17
2023-01-20T05:07:33.754Z,-0.15
2023-01-20T05:10:01.346Z,-0.16
2023-01-20T05:12:30.245Z,-0.17
2023-01-20T05:14:58.430Z,-0.17
2023-01-20T05:17:26.058Z,-0.14
2023-01-20T05:19:53.651Z,-0.07
2023-01-20T05:22:21.831Z,-0.01
2023-01-20T05:24:49.455Z,-0.02
2023-01-20T05:27:17.039Z,0.02
2023-01-20T05:29:45.976Z,0.04
2023-01-20T05:32:14.203Z,-0.01
2023-01-20T05:34:41.808Z,-0.06
2023-01-20T05:37:09.656Z,-0.04
2023-01-20T05:39:37.289Z,-0.05
2023-01-20T05:42:05.539Z,0.08
2023-01-20T05:44:33.119Z,0.09
2023-01-20T05:47:02.118Z,0.14
2023-01-20T05:49:29.842Z,0.12
2023-01-20T05:51:58.201Z,0.09
2023-01-20T05:54:26.573Z,0.15
2023-01-20T05:56:54.891Z,0.13
2023-01-20T05:59:24.174Z,0.17
2023-01-20T06:01:52.349Z,0.13
2023-01-20T06:04:21.282Z,-0.07
2023-01-20T06:06:49.568Z,-0.09
2023-01-20T06:09:17.170Z,-0.06
2023-01-20T06:11:45.093Z,-0.18
2023-01-20T06:14:12.869Z,-0.22
2023-01-20T06:16:41.375Z,-0.35
2023-01-20T06:19:09.009Z,-0.39
2023-01-20T06:21:38.644Z,-0.32
2023-01-20T06:24:07.448Z,-0.45
2023-01-20T06:26:35.057Z,-0.46
2023-01-20T06:29:02.677Z,-0.50
2023-01-20T06:31:30.733Z,-0.49
2023-01-20T06:33:58.384Z,-0.40
2023-01-20T06:36:27.099Z,-0.37
2023-01-20T06:38:56.037Z,-0.38
2023-01-20T06:41:25.188Z,-0.39
2023-01-20T06:43:52.800Z,-0.31
2023-01-20T06:46:21.115Z,-0.30
2023-01-20T06:48:49.192Z,-0.23
2023-01-20T06:51:19.640Z,-0.21
2023-01-20T06:53:48.495Z,-0.29
2023-01-20T06:56:17.472Z,-0.43
2023-01-20T06:58:45.145Z,-0.43
2023-01-20T07:01:16.807Z,-0.38
2023-01-20T07:03:44.693Z,-0.35
2023-01-20T07:06:17.004Z,-0.30
2023-01-20T07:08:45.435Z,-0.37
2023-01-20T07:11:13.661Z,-0.34
2023-01-20T07:13:42.805Z,-0.41
2023-01-20T07:16:14.399Z,-0.42
2023-01-20T07:18:43.385Z,-0.42
2023-01-20T07:21:12.649Z,-0.46
2023-01-20T07:23:40.326Z,-0.53
2023-01-20T07:26:09.974Z,-0.43
2023-01-20T07:28:38.584Z,-0.45
2023-01-20T07:31:10.432Z,-0.47
2023-01-20T07:33:38.555Z,-0.51
2023-01-20T07:36:07.829Z,-0.48
2023-01-20T07:38:36.779Z,-0.45
2023-01-20T07:41:06.416Z,-0.39
2023-01-20T07:43:35.188Z,-0.36
2023-01-20T07:46:04.537Z,-0.36
2023-01-20T07:48:34.963Z,-0.36
2023-01-20T07:51:05.624Z,-0.39
2023-01-20T07:53:35.229Z,-0.40
2023-01-20T07:56:03.311Z,-0.26
2023-01-20T07:58:31.718Z,-0.22
2023-01-20T08:00:59.427Z,-0.16
2023-01-20T08:03:27.791Z,-0.11
2023-01-20T08:05:56.694Z,-0.02
2023-01-20T08:08:24.584Z,0.01
2023-01-20T08:10:54.785Z,-0.02
2023-01-20T08:13:22.921Z,0.05
2023-01-20T08:15:50.518Z,0.01
2023-01-20T08:18:18.309Z,0.00
2023-01-20T08:20:45.990Z,-0.28
2023-01-20T08:23:16.001Z,0.04
2023-01-20T08:25:43.979Z,0.15
2023-01-20T08:28:12.043Z,0.18
2023-01-20T08:30:39.828Z,0.18
2023-01-20T08:33:07.792Z,0.20
2023-01-20T08:35:36.417Z,0.27
2023-01-20T08:38:04.659Z,0.44
2023-01-20T08:40:34.248Z,0.42
2023-01-20T08:43:02.260Z,0.61
2023-01-20T08:45:29.853Z,0.70
2023-01-20T08:47:57.787Z,0.79
2023-01-20T08:50:25.591Z,0.75
2023-01-20T08:52:54.176Z,0.73
2023-01-20T08:55:21.738Z,0.63
2023-01-20T08:57:50.983Z,0.61
2023-01-20T09:00:19.539Z,0.59
2023-01-20T09:02:47.247Z,0.66
2023-01-20T09:05:15.990Z,0.73
2023-01-20T09:07:45.137Z,0.79
2023-01-20T09:10:13.993Z,0.76
2023-01-20T09:12:41.591Z,0.73
2023-01-20T09:15:12.761Z,0.64
2023-01-20T09:17:40.634Z,0.67
2023-01-20T09:20:09.891Z,0.71
2023-01-20T09:22:37.464Z,0.85
2023-01-20T09:25:06.724Z,0.74
2023-01-20T09:27:34.306Z,0.94
2023-01-20T09:30:02.014Z,1.05
2023-01-20T09:32:32.695Z,1.10
2023-01-20T09:35:00.644Z,1.16
2023-01-20T09:37:46.045Z,1.18
2023-01-20T09:40:36.954Z,1.16
2023-01-20T09:43:49.238Z,1.15
2023-01-20T09:46:25.262Z,1.33
2023-01-20T09:49:22.320Z,1.46
2023-01-20T09:52:16.447Z,1.60
2023-01-20T09:54:48.673Z,1.58
2023-01-20T09:57:19.475Z,1.75
2023-01-20T09:59:51.670Z,1.83
2023-01-20T10:02:24.615Z,1.88
2023-01-20T10:04:58.893Z,2.12
2023-01-20T10:07:34.334Z,2.31
2023-01-20T10:10:09.825Z,2.52
2023-01-20T10:12:43.023Z,2.64
2023-01-20T10:15:17.799Z,2.61
2023-01-20T10:17:52.273Z,2.72
2023-01-20T10:20:30.065Z,2.77
2023-01-20T10:23:03.545Z,2.66
2023-01-20T10:25:37.886Z,2.54
2023-01-20T10:28:11.721Z,2.55
2023-01-20T10:30:40.550Z,2.55
2023-01-20T10:33:11.162Z,2.58
2023-01-20T10:35:45.219Z,2.60
2023-01-20T10:38:21.903Z,2.51
2023-01-20T10:40:57.951Z,2.74
2023-01-20T10:43:26.624Z,2.74
2023-01-20T10:46:12.215Z,2.75
2023-01-20T10:49:06.553Z,2.94
2023-01-20T10:51:46.707Z,3.06
2023-01-20T10:54:25.832Z,2.92
2023-01-20T10:56:55.550Z,2.81
2023-01-20T10:59:30.502Z,2.70
2023-01-20T11:02:11.869Z,2.82
2023-01-20T11:04:41.832Z,2.94
2023-01-20T11:07:17.143Z,2.70
2023-01-20T11:09:45.954Z,2.58
2023-01-20T11:12:16.966Z,2.62
2023-01-20T11:14:45.333Z,2.79
2023-01-20T11:17:16.299Z,2.81
2023-01-20T11:19:53.677Z,2.70
2023-01-20T11:22:30.142Z,2.33
2023-01-20T11:25:00.063Z,2.47
2023-01-20T11:27:30.655Z,2.32
2023-01-20T11:30:02.326Z,2.56
2023-01-20T11:32:33.226Z,2.48
2023-01-20T11:35:02.715Z,2.43
2023-01-20T11:37:39.580Z,2.62
2023-01-20T11:40:20.530Z,2.45
2023-01-20T11:42:49.495Z,2.42
2023-01-20T11:45:27.475Z,2.31
2023-01-20T11:48:05.173Z,2.69
2023-01-20T11:50:50.917Z,2.93
2023-01-20T11:53:22.922Z,2.99
2023-01-20T11:55:53.255Z,3.04
2023-01-20T11:58:22.312Z,3.07
2023-01-20T12:00:54.334Z,3.03
2023-01-20T12:03:50.743Z,2.92
2023-01-20T12:06:22.331Z,2.88
2023-01-20T12:08:54.728Z,2.90
2023-01-20T12:11:28.693Z,3.08
2023-01-20T12:14:23.260Z,2.87
2023-01-20T12:17:16.395Z,2.94
2023-01-20T12:19:58.748Z,2.71
2023-01-20T12:22:33.835Z,2.85
2023-01-20T12:25:14.629Z,2.72
2023-01-20T12:27:47.681Z,2.92
2023-01-20T12:30:35.865Z,2.72
2023-01-20T12:33:03.806Z,2.74
2023-01-20T12:35:38.593Z,2.55
2023-01-20T12:38:08.513Z,2.79
2023-01-20T12:40:44.116Z,2.83
2023-01-20T12:43:37.287Z,2.91
2023-01-20T12:46:24.147Z,2.69
2023-01-20T12:49:02.639Z,2.66
2023-01-20T12:51:44.180Z,2.65
2023-01-20T12:54:47.474Z,2.51
2023-01-20T12:57:28.448Z,2.21
2023-01-20T13:00:16.327Z,2.24
2023-01-20T13:03:04.905Z,2.18
2023-01-20T13:05:58.751Z,2.16
2023-01-20T13:08:37.315Z,2.10
2023-01-20T13:11:16.663Z,2.16
2023-01-20T13:14:02.548Z,2.29
2023-01-20T13:16:35.893Z,2.53
2023-01-20T13:19:13.353Z,2.59
2023-01-20T13:21:42.857Z,2.61
2023-01-20T13:24:19.081Z,2.29
2023-01-20T13:26:49.537Z,2.62
2023-01-20T13:29:24.575Z,2.33
2023-01-20T13:31:53.979Z,2.40
2023-01-20T13:34:34.308Z,2.36
2023-01-20T13:37:23.951Z,2.34
2023-01-20T13:39:54.488Z,2.18
2023-01-20T13:42:31.195Z,1.96
2023-01-20T13:45:19.645Z,2.06
2023-01-20T13:48:03.788Z,1.89
2023-01-20T13:50:33.624Z,1.77
2023-01-20T13:53:27.811Z,1.73
2023-01-20T13:56:25.935Z,1.76
2023-01-20T13:58:53.581Z,1.62
2023-01-20T14:01:22.651Z,1.73
2023-01-20T14:04:03.972Z,1.86
2023-01-20T14:06:33.126Z,1.55
2023-01-20T14:09:02.351Z,1.42
2023-01-20T14:11:31.301Z,1.32
2023-01-20T14:14:02.075Z,1.34
2023-01-20T14:16:38.212Z,1.32
2023-01-20T14:19:16.770Z,1.47
2023-01-20T14:21:44.577Z,1.76
2023-01-20T14:24:28.438Z,1.54
2023-01-20T14:27:07.506Z,1.26
2023-01-20T14:29:35.512Z,1.28
2023-01-20T14:32:17.047Z,1.39
2023-01-20T14:34:45.150Z,1.24
2023-01-20T14:37:25.844Z,1.34
2023-01-20T14:39:54.949Z,1.10
2023-01-20T14:42:24.099Z,1.23
2023-01-20T14:44:53.194Z,1.22
2023-01-20T14:47:25.180Z,0.90
2023-01-20T14:49:54.804Z,1.18
2023-01-20T14:52:25.759Z,0.94
2023-01-20T14:54:56.160Z,0.83
2023-01-20T14:57:29.899Z,1.12
2023-01-20T15:00:04.683Z,1.05
2023-01-20T15:02:35.928Z,1.08
2023-01-20T15:05:03.970Z,0.85
2023-01-20T15:07:31.647Z,0.82
2023-01-20T15:10:03.142Z,0.93
2023-01-20T15:12:42.418Z,0.75
2023-01-20T15:15:30.049Z,0.74
2023-01-20T15:18:07.011Z,0.46
2023-01-20T15:20:35.933Z,0.56
2023-01-20T15:23:03.887Z,0.44
2023-01-20T15:25:31.652Z,0.36
2023-01-20T15:27:59.857Z,0.35
2023-01-20T15:30:29.749Z,0.18
2023-01-20T15:32:58.113Z,0.19
2023-01-20T15:35:27.256Z,0.24
2023-01-20T15:37:55.780Z,0.34
2023-01-20T15:40:25.564Z,0.13
2023-01-20T15:42:53.408Z,0.22
2023-01-20T15:45:21.278Z,0.05
2023-01-20T15:47:49.766Z,-0.08
2023-01-20T15:50:20.270Z,-0.10
2023-01-20T15:52:49.541Z,-0.09
2023-01-20T15:55:19.233Z,0.02
2023-01-20T15:57:50.587Z,-0.10
2023-01-20T16:00:20.555Z,0.07
2023-01-20T16:02:48.684Z,0.10
2023-01-20T16:05:17.871Z,-0.01
2023-01-20T16:07:47.492Z,0.17
2023-01-20T16:10:18.947Z,0.19
2023-01-20T16:12:47.443Z,0.05
2023-01-20T16:15:18.333Z,0.00
2023-01-20T16:17:46.129Z,-0.08
2023-01-20T16:20:21.963Z,0.05
2023-01-20T16:22:49.752Z,-0.15
2023-01-20T16:25:19.025Z,0.06
2023-01-20T16:27:47.048Z,0.01
2023-01-20T16:30:17.396Z,0.05
2023-01-20T16:32:46.524Z,-0.03
2023-01-20T16:35:15.087Z,-0.13
2023-01-20T16:37:43.708Z,-0.02
2023-01-20T16:40:14.792Z,0.10
2023-01-20T16:42:43.893Z,0.13
2023-01-20T16:45:24.148Z,-0.01
2023-01-20T16:47:51.791Z,0.01
2023-01-20T16:50:19.772Z,0.16
2023-01-20T16:52:48.119Z,0.02
2023-01-20T16:55:16.350Z,-0.03
2023-01-20T16:57:45.284Z,0.13
2023-01-20T17:00:15.041Z,0.10
2023-01-20T17:02:45.520Z,0.15
2023-01-20T17:05:13.253Z,0.21
2023-01-20T17:07:40.829Z,0.31
2023-01-20T17:10:09.547Z,0.31
2023-01-20T17:12:37.132Z,0.36
2023-01-20T17:15:07.899Z,0.41
2023-01-20T17:17:38.505Z,0.47
2023-01-20T17:20:10.153Z,0.51
2023-01-20T17:22:39.167Z,0.48
2023-01-20T17:25:08.701Z,0.51
2023-01-20T17:27:36.548Z,0.60
2023-01-20T17:30:07.814Z,0.64
2023-01-20T17:32:35.864Z,0.66
2023-01-20T17:35:04.878Z,0.67
2023-01-20T17:37:32.582Z,0.64
2023-01-20T17:40:00.715Z,0.61
2023-01-20T17:42:28.355Z,0.53
2023-01-20T17:44:58.403Z,0.50
2023-01-20T17:47:28.063Z,0.49
2023-01-20T17:49:56.988Z,0.47
2023-01-20T17:52:24.596Z,0.49
2023-01-20T17:54:52.661Z,0.50
2023-01-20T17:57:20.297Z,0.51
2023-01-20T17:59:47.969Z,0.52
2023-01-20T18:02:18.798Z,0.53
2023-01-20T18:04:47.785Z,0.49
2023-01-20T18:07:15.685Z,0.39
2023-01-20T18:09:43.288Z,0.21
2023-01-20T18:12:10.897Z,0.15
2023-01-20T18:14:38.602Z,0.06
2023-01-20T18:17:06.422Z,-0.01
2023-01-20T18:19:34.260Z,-0.13
2023-01-20T18:22:07.057Z,-0.42
2023-01-20T18:24:34.758Z,-0.36
2023-01-20T18:27:02.483Z,-0.38
2023-01-20T18:29:30.647Z,-0.37
2023-01-20T18:31:59.210Z,-0.36
2023-01-20T18:34:27.304Z,-0.65
2023-01-20T18:36:54.937Z,-0.53
2023-01-20T18:39:25.294Z,-0.34
2023-01-20T18:41:53.248Z,-0.26
2023-01-20T18:44:22.226Z,-0.36
2023-01-20T18:46:50.108Z,-0.35
2023-01-20T18:49:18.751Z,-0.47
2023-01-20T18:51:48.057Z,-0.39
2023-01-20T18:54:18.358Z,-0.43
2023-01-20T18:56:47.920Z,-0.41
2023-01-20T18:59:15.901Z,-0.42
2023-01-20T19:01:46.303Z,-0.35
2023-01-20T19:04:14.375Z,-0.31
2023-01-20T19:06:43.469Z,-0.23
2023-01-20T19:09:12.016Z,-0.18
2023-01-20T19:11:40.933Z,-0.12
2023-01-20T19:14:13.163Z,-0.08
2023-01-20T19:16:45.078Z,-0.09
2023-01-20T19:19:13.676Z,-0.10
2023-01-20T19:21:41.640Z,-0.06
2023-01-20T19:24:11.863Z,-0.08
2023-01-20T19:26:40.322Z,-0.08
2023-01-20T19:29:15.622Z,-0.07
2023-01-20T19:31:44.148Z,-0.15
2023-01-20T19:34:11.827Z,-0.30
2023-01-20T19:36:40.170Z,-0.29
2023-01-20T19:39:07.896Z,-0.42
2023-01-20T19:41:36.780Z,-0.47
2023-01-20T19:44:07.728Z,-0.51
2023-01-20T19:46:39.148Z,-0.66
2023-01-20T19:49:07.473Z,-0.76
2023-01-20T19:51:37.686Z,-0.95
2023-01-20T19:54:06.643Z,-1.10
2023-01-20T19:56:36.249Z,-1.11
2023-01-20T19:59:05.839Z,-1.24
2023-01-20T20:01:35.855Z,-1.16
2023-01-20T20:04:07.665Z,-1.15
2023-01-20T20:06:38.306Z,-1.03
2023-01-20T20:09:08.036Z,-1.00
2023-01-20T20:11:37.851Z,-1.01
2023-01-20T20:14:07.469Z,-1.01
2023-01-20T20:16:37.674Z,-0.93
2023-01-20T20:19:09.752Z,-0.96
2023-01-20T20:21:38.609Z,-0.88
2023-01-20T20:24:06.875Z,-0.86
2023-01-20T20:26:36.869Z,-0.81
2023-01-20T20:29:06.240Z,-0.75
2023-01-20T20:31:36.272Z,-0.67
2023-01-20T20:34:07.546Z,-0.72
2023-01-20T20:36:36.156Z,-0.71
2023-01-20T20:39:04.946Z,-0.66
2023-01-20T20:41:35.587Z,-0.66
2023-01-20T20:44:04.086Z,-0.64
2023-01-20T20:46:32.394Z,-0.69
2023-01-20T20:49:02.328Z,-0.74
2023-01-20T20:51:33.627Z,-0.78
2023-01-20T20:54:03.709Z,-0.82
2023-01-20T20:56:32.390Z,-0.80
2023-01-20T20:59:03.359Z,-0.80
2023-01-20T21:01:32.608Z,-0.80
2023-01-20T21:04:01.184Z,-0.89
2023-01-20T21:06:29.451Z,-0.92
2023-01-20T21:08:59.913Z,-0.98
2023-01-20T21:11:28.119Z,-1.03
2023-01-20T21:13:56.253Z,-1.11
2023-01-20T21:16:25.309Z,-1.12
2023-01-20T21:18:56.041Z,-1.25
2023-01-20T21:21:24.205Z,-1.13
2023-01-20T21:23:53.528Z,-1.12
2023-01-20T21:26:23.506Z,-1.12
2023-01-20T21:28:51.946Z,-1.18
2023-01-20T21:31:21.904Z,-1.20
2023-01-20T21:33:54.401Z,-1.36
2023-01-20T21:36:22.156Z,-1.42
2023-01-20T21:38:50.837Z,-1.58
2023-01-20T21:41:19.695Z,-1.84
2023-01-20T21:44:06.969Z,-1.78
2023-01-20T21:46:38.425Z,-1.75
2023-01-20T21:49:25.857Z,-1.70
2023-01-20T21:52:12.064Z,-1.63
2023-01-20T21:54:41.264Z,-1.58
2023-01-20T21:57:09.252Z,-1.49
2023-01-20T21:59:39.245Z,-1.42
2023-01-20T22:02:07.429Z,-1.39
2023-01-20T22:04:35.964Z,-1.33
2023-01-20T22:07:03.569Z,-1.25
2023-01-20T22:09:31.565Z,-1.17
2023-01-20T22:11:59.227Z,-1.16
2023-01-20T22:14:27.307Z,-1.16
2023-01-20T22:16:56.292Z,-1.09
2023-01-20T22:19:23.915Z,-1.08
2023-01-20T22:21:51.875Z,-1.05
2023-01-20T22:24:20.255Z,-1.03
2023-01-20T22:26:48.391Z,-1.01
2023-01-20T22:29:16.651Z,-1.10
2023-01-20T22:31:44.388Z,-1.07
2023-01-20T22:34:13.689Z,-1.09
2023-01-20T22:36:41.607Z,-1.10
2023-01-20T22:39:11.985Z,-1.27
2023-01-20T22:41:39.668Z,-1.39
2023-01-20T22:44:08.018Z,-1.20
2023-01-20T22:46:35.667Z,-1.11
2023-01-20T22:49:03.680Z,-1.06
2023-01-20T22:51:32.753Z,-1.00
2023-01-20T22:54:02.514Z,-0.92
2023-01-20T22:56:33.049Z,-0.90
2023-01-20T22:59:01.753Z,-0.82
2023-01-20T23:01:31.962Z,-0.76
2023-01-20T23:04:01.577Z,-0.70
2023-01-20T23:06:32.436Z,-0.70
2023-01-20T23:09:03.312Z,-0.71
2023-01-20T23:11:31.580Z,-0.73
2023-01-20T23:14:00.195Z,-0.79
2023-01-20T23:16:28.008Z,-0.79
2023-01-20T23:18:55.700Z,-0.80
2023-01-20T23:21:24.536Z,-0.88
2023-01-20T23:23:54.571Z,-0.88
2023-01-20T23:26:25.657Z,-0.92
2023-01-20T23:28:53.895Z,-0.97
2023-01-20T23:31:23.483Z,-0.97
2023-01-20T23:33:51.478Z,-0.98
2023-01-20T23:36:21.924Z,-1.16
2023-01-20T23:38:49.740Z,-1.17
2023-01-20T23:41:17.778Z,-1.21
2023-01-20T23:43:46.748Z,-1.28
2023-01-20T23:46:14.790Z,-1.21
2023-01-20T23:48:42.483Z,-1.18
2023-01-20T23:51:10.755Z,-1.23
2023-01-20T23:53:40.376Z,-1.38
2023-01-20T23:56:13.446Z,-1.39
2023-01-20T23:58:41.539Z,-1.54
